createdAt,value
2022-08-02T00:02:09.641Z,22.32
2022-08-02T00:07:11.312Z,22.32
2022-08-02T00:12:12.955Z,22.32
2022-08-02T00:17:14.549Z,22.30
2022-08-02T00:22:16.005Z,22.24
2022-08-02T00:27:17.469Z,22.18
2022-08-02T00:32:18.864Z,22.13
2022-08-02T00:37:20.222Z,22.07
2022-08-02T00:42:21.577Z,22.11
2022-08-02T00:47:22.893Z,22.02
2022-08-02T00:52:24.472Z,21.97
2022-08-02T00:57:25.873Z,21.94
2022-08-02T01:02:27.313Z,21.91
2022-08-02T01:07:28.669Z,21.87
2022-08-02T01:12:30.126Z,21.76
2022-08-02T01:17:50.841Z,21.77
2022-08-02T01:23:02.025Z,21.70
2022-08-02T01:28:26.349Z,21.65
2022-08-02T01:33:35.814Z,21.68
2022-08-02T01:38:44.665Z,21.67
2022-08-02T01:43:47.865Z,21.65
2022-08-02T01:48:50.518Z,21.63
2022-08-02T01:53:52.083Z,21.57
2022-08-02T01:58:54.462Z,21.64
2022-08-02T02:03:56.354Z,21.63
2022-08-02T02:09:00.103Z,21.65
2022-08-02T02:14:02.933Z,21.65
2022-08-02T02:19:07.053Z,21.57
2022-08-02T02:24:11.691Z,21.43
2022-08-02T02:29:14.771Z,21.44
2022-08-02T02:34:23.963Z,21.35
2022-08-02T02:39:28.468Z,21.29
2022-08-02T02:44:32.059Z,21.23
2022-08-02T02:49:35.781Z,21.12
2022-08-02T02:54:38.765Z,21.14
2022-08-02T02:59:43.055Z,21.16
2022-08-02T03:04:56.978Z,21.00
2022-08-02T03:09:59.901Z,21.16
2022-08-02T03:15:05.114Z,21.17
2022-08-02T03:20:09.552Z,21.19
2022-08-02T03:25:12.779Z,21.19
2022-08-02T03:30:14.978Z,21.19
2022-08-02T03:35:23.346Z,21.16
2022-08-02T03:40:27.536Z,21.18
2022-08-02T03:45:30.273Z,21.19
2022-08-02T03:50:33.812Z,21.13
2022-08-02T03:55:36.371Z,21.23
2022-08-02T04:00:37.930Z,21.12
2022-08-02T04:06:04.099Z,21.27
2022-08-02T04:11:19.581Z,21.26
2022-08-02T04:16:24.986Z,21.24
2022-08-02T04:21:48.544Z,21.17
2022-08-02T04:26:50.736Z,20.96
2022-08-02T04:31:54.031Z,20.90
2022-08-02T04:36:55.972Z,20.98
2022-08-02T04:41:58.027Z,20.89
2022-08-02T04:47:06.470Z,20.86
2022-08-02T04:52:08.563Z,20.88
2022-08-02T04:57:28.541Z,20.96
2022-08-02T05:02:46.850Z,21.06
2022-08-02T05:07:56.281Z,21.14
2022-08-02T05:12:57.935Z,21.23
2022-08-02T05:18:00.987Z,21.19
2022-08-02T05:23:03.471Z,21.07
2022-08-02T05:28:08.345Z,21.09
2022-08-02T05:33:12.821Z,21.16
2022-08-02T05:38:14.129Z,21.13
2022-08-02T05:43:16.339Z,21.15
2022-08-02T05:48:17.717Z,21.18
2022-08-02T05:53:35.372Z,21.24
2022-08-02T05:58:47.301Z,21.39
2022-08-02T06:03:52.598Z,21.43
2022-08-02T06:09:03.832Z,21.63
2022-08-02T06:14:06.937Z,21.91
2022-08-02T06:19:08.978Z,22.11
2022-08-02T06:24:10.768Z,22.24
2022-08-02T06:29:12.870Z,22.38
2022-08-02T06:34:14.195Z,22.54
2022-08-02T06:39:31.250Z,22.62
2022-08-02T06:44:52.989Z,22.72
2022-08-02T06:49:55.668Z,22.87
2022-08-02T06:55:03.173Z,22.89
2022-08-02T07:00:09.064Z,23.05
2022-08-02T07:05:10.638Z,23.27
2022-08-02T07:10:13.725Z,23.41
2022-08-02T07:15:16.294Z,23.43
2022-08-02T07:20:17.663Z,23.73
2022-08-02T07:25:19.313Z,23.84
2022-08-02T07:30:20.797Z,23.86
2022-08-02T07:35:22.409Z,23.59
2022-08-02T07:40:24.968Z,23.57
2022-08-02T07:45:27.271Z,23.79
2022-08-02T07:50:28.587Z,24.00
2022-08-02T07:55:39.330Z,24.17
2022-08-02T08:00:43.156Z,24.39
2022-08-02T08:05:44.530Z,24.58
2022-08-02T08:10:46.868Z,24.94
2022-08-02T08:15:52.045Z,25.24
2022-08-02T08:20:53.914Z,25.45
2022-08-02T08:25:55.869Z,25.42
2022-08-02T08:30:57.351Z,25.69
2022-08-02T08:35:58.714Z,25.91
2022-08-02T08:41:04.106Z,26.14
2022-08-02T08:46:06.544Z,25.98
2022-08-02T08:51:13.817Z,26.24
2022-08-02T08:56:16.846Z,26.48
2022-08-02T09:01:18.518Z,26.93
2022-08-02T09:06:20.555Z,26.83
2022-08-02T09:11:26.308Z,27.16
2022-08-02T09:16:39.133Z,27.67
2022-08-02T09:21:40.464Z,28.02
2022-08-02T09:26:42.391Z,28.52
2022-08-02T09:31:49.350Z,28.27
2022-08-02T09:36:54.295Z,28.97
2022-08-02T09:42:11.966Z,29.55
2022-08-02T09:47:16.443Z,29.92
2022-08-02T09:52:23.296Z,30.44
2022-08-02T09:57:38.987Z,30.45
2022-08-02T10:02:40.419Z,30.10
2022-08-02T10:07:42.022Z,30.41
2022-08-02T10:12:43.424Z,30.52
2022-08-02T10:17:45.189Z,30.27
2022-08-02T10:22:47.116Z,30.92
2022-08-02T10:28:04.861Z,31.67
2022-08-02T10:33:08.826Z,31.75
2022-08-02T10:38:12.334Z,32.08
2022-08-02T10:43:36.595Z,32.91
2022-08-02T10:49:38.086Z,33.18
2022-08-02T10:54:41.477Z,33.16
2022-08-02T10:59:51.540Z,33.02
2022-08-02T11:04:55.832Z,33.57
2022-08-02T11:09:59.223Z,33.09
2022-08-02T11:15:07.408Z,33.76
2022-08-02T11:20:12.297Z,33.82
2022-08-02T11:26:02.288Z,34.06
2022-08-02T11:31:00.902Z,33.48
2022-08-02T11:36:05.133Z,33.60
2022-08-02T11:41:09.956Z,33.02
2022-08-02T11:46:14.261Z,33.35
2022-08-02T11:51:18.040Z,33.31
2022-08-02T11:56:27.325Z,33.28
2022-08-02T12:01:30.809Z,33.79
2022-08-02T12:06:34.884Z,33.93
2022-08-02T12:11:39.106Z,33.89
2022-08-02T12:16:59.431Z,33.63
2022-08-02T12:22:10.065Z,33.88
2022-08-02T12:27:28.723Z,34.24
2022-08-02T12:32:30.561Z,34.32
2022-08-02T12:37:32.018Z,34.15
2022-08-02T12:42:46.640Z,33.96
2022-08-02T12:47:51.143Z,33.78
2022-08-02T12:53:13.704Z,33.74
2022-08-02T12:58:15.420Z,33.89
2022-08-02T13:04:08.961Z,33.43
2022-08-02T13:08:41.610Z,33.16
2022-08-02T13:13:43.596Z,33.39
2022-08-02T13:18:46.184Z,32.95
2022-08-02T13:23:54.240Z,32.76
2022-08-02T13:28:55.911Z,32.48
2022-08-02T13:33:57.164Z,32.60
2022-08-02T13:38:58.487Z,32.53
2022-08-02T13:44:08.912Z,32.37
2022-08-02T13:49:15.084Z,32.25
2022-08-02T13:54:19.393Z,32.39
2022-08-02T13:59:53.945Z,32.33
2022-08-02T14:04:42.071Z,32.21
2022-08-02T14:09:43.581Z,32.01
2022-08-02T14:14:44.926Z,32.27
2022-08-02T14:19:46.534Z,32.13
2022-08-02T14:24:47.766Z,32.06
2022-08-02T14:29:51.242Z,31.79
2022-08-02T14:34:52.700Z,31.46
2022-08-02T14:40:00.010Z,31.42
2022-08-02T14:45:02.314Z,31.41
2022-08-02T14:50:04.202Z,31.23
2022-08-02T14:55:06.192Z,31.12
2022-08-02T15:00:08.503Z,31.18
2022-08-02T15:05:09.903Z,31.26
2022-08-02T15:10:11.302Z,31.29
2022-08-02T15:15:12.648Z,31.33
2022-08-02T15:20:25.319Z,31.34
2022-08-02T15:25:27.497Z,31.31
2022-08-02T15:30:28.819Z,31.21
2022-08-02T15:35:30.186Z,31.18
2022-08-02T15:40:31.499Z,30.81
2022-08-02T15:45:35.060Z,30.82
2022-08-02T15:50:36.460Z,30.94
2022-08-02T15:55:52.003Z,30.93
2022-08-02T16:01:00.425Z,30.91
2022-08-02T16:06:01.920Z,30.86
2022-08-02T16:11:03.366Z,30.77
2022-08-02T16:16:04.960Z,30.65
2022-08-02T16:21:06.284Z,30.59
2022-08-02T16:26:07.771Z,30.64
2022-08-02T16:31:11.270Z,30.56
2022-08-02T16:36:14.259Z,30.49
2022-08-02T16:41:16.343Z,30.45
2022-08-02T16:46:19.036Z,30.35
2022-08-02T16:51:20.511Z,30.25
2022-08-02T16:56:22.454Z,30.09
2022-08-02T17:01:27.412Z,29.94
2022-08-02T17:06:29.202Z,29.85
2022-08-02T17:11:30.689Z,29.73
2022-08-02T17:16:32.732Z,29.60
2022-08-02T17:21:34.084Z,29.66
2022-08-02T17:26:37.161Z,29.60
2022-08-02T17:31:44.389Z,29.54
2022-08-02T17:36:49.683Z,29.46
2022-08-02T17:41:51.287Z,29.39
2022-08-02T17:46:52.662Z,29.20
2022-08-02T17:52:49.369Z,29.17
2022-08-02T17:57:15.798Z,29.01
2022-08-02T18:02:17.382Z,28.82
2022-08-02T18:07:25.037Z,28.73
2022-08-02T18:12:27.046Z,28.62
2022-08-02T18:17:29.336Z,28.51
2022-08-02T18:22:30.760Z,28.38
2022-08-02T18:27:32.253Z,28.29
2022-08-02T18:33:55.938Z,28.27
2022-08-02T18:37:57.408Z,28.20
2022-08-02T18:43:03.519Z,28.11
2022-08-02T18:48:07.456Z,28.06
2022-08-02T18:53:09.424Z,27.94
2022-08-02T18:58:20.213Z,27.87
2022-08-02T19:03:22.251Z,27.80
2022-08-02T19:08:25.405Z,27.76
2022-08-02T19:13:27.833Z,27.67
2022-08-02T19:18:31.917Z,27.61
2022-08-02T19:23:34.115Z,27.50
2022-08-02T19:28:35.567Z,27.46
2022-08-02T19:34:05.794Z,27.35
2022-08-02T19:38:59.661Z,27.32
2022-08-02T19:44:25.378Z,27.27
2022-08-02T19:49:40.172Z,27.19
2022-08-02T19:54:54.983Z,27.08
2022-08-02T19:59:57.467Z,27.06
2022-08-02T20:04:59.846Z,26.98
2022-08-02T20:10:01.739Z,26.86
2022-08-02T20:15:07.861Z,26.80
2022-08-02T20:20:17.264Z,26.69
2022-08-02T20:25:19.039Z,26.59
2022-08-02T20:30:20.479Z,26.55
2022-08-02T20:35:26.893Z,26.43
2022-08-02T20:40:28.790Z,26.43
2022-08-02T20:45:30.404Z,26.37
2022-08-02T20:50:52.167Z,26.18
2022-08-02T20:55:55.762Z,26.09
2022-08-02T21:00:59.797Z,25.94
2022-08-02T21:06:01.553Z,25.87
2022-08-02T21:11:09.544Z,25.82
2022-08-02T21:16:18.353Z,25.71
2022-08-02T21:21:22.822Z,25.68
2022-08-02T21:26:25.905Z,25.64
2022-08-02T21:31:35.916Z,25.61
2022-08-02T21:36:38.035Z,25.59
2022-08-02T21:41:46.441Z,25.65
2022-08-02T21:46:55.966Z,25.64
2022-08-02T21:51:57.522Z,25.55
2022-08-02T21:56:58.834Z,25.45
2022-08-02T22:02:00.213Z,25.41
2022-08-02T22:07:01.631Z,25.33
2022-08-02T22:12:04.702Z,25.28
2022-08-02T22:17:13.689Z,25.22
2022-08-02T22:22:15.407Z,25.19
2022-08-02T22:27:16.774Z,25.14
2022-08-02T22:32:39.954Z,25.04
2022-08-02T22:38:17.506Z,24.98
2022-08-02T22:43:04.157Z,24.80
2022-08-02T22:48:06.488Z,24.82
2022-08-02T22:53:07.923Z,24.72
2022-08-02T22:58:09.538Z,24.72
2022-08-02T23:03:10.864Z,24.59
2022-08-02T23:08:12.174Z,24.56
2022-08-02T23:13:13.504Z,24.49
2022-08-02T23:18:33.507Z,24.47
2022-08-02T23:23:34.825Z,24.41
2022-08-02T23:28:36.318Z,24.40
2022-08-02T23:34:03.941Z,24.29
2022-08-02T23:38:59.835Z,24.18
2022-08-02T23:44:13.548Z,24.11
2022-08-02T23:49:16.643Z,24.10
2022-08-02T23:54:18.257Z,24.08
2022-08-02T23:59:19.754Z,23.95
